Maple Beach, Washington
Current Conditions -  °F | °C
As of 6:55 PM on Monday 20 Oct 2014 (Local Time) from KPWT Reporting Station
Broken Clouds Broken Clouds  
Wind Chill: 54°   Ceiling: 4700
Heat Index: 54°   Visibility: 10mi
Dew Point: 54°   Wind: 6mph
Humidity: 100%   Direction: 170°S
Pressure: 29.78"   Gusts: NA
Location:  47.6282°N, 122.837°W
Report Text: KPWT 210155Z AUTO 17005KT 10SM FEW033 SCT041 BKN047 12/12 A2978 RMK AO1 P0006
Loading
Personal Weather Stations






























Interactive Weather Map
Tropical Storm Tracking
New forecast layout! Learn more

10-Day Weather Forecast

Advertisements
Track Severe Weather on mobile